Aeroporto :
LOGIN :

Iscrizione | Disclaimer

   EN    FR    IT 

 










Sommario :    VFR   VFR Marginale   IFR   IFR Intensivo   IFR Molto Intensivo
Visibilità : 
Base nubi : 
>= 8 km
>= 3000ft
5 / 8 km
1000 / 3000 ft
1500m / 5 km
500 / 1000 ft
800 / 1500m
200 / 500 ft
< 800m
< 200 ft
Simboli :   Temporali  Nebbia  Neve Forte  Precipitazioni Forti  Vento > 20 kt
SIGMETs :   Varie  Temporali  Ghiacco  Turbolenza  Onda orograficha  Ceneri Vulcaniche






- Altitudine del aeroporto : 0 ft


ETEB - Ansbach Army Heliport

ULTIMO METAR :
  • 290656Z AUTO 25010KT 9999 -RA BKN031 07/07 A3001 RMK AO2 SLP184 P0009 T00730073 $

METARs OBSOLETI :
  • 290641Z AUTO 26013G20KT 9999 RA FEW012 OVC025 07/07 A3000 RMK AO2 SLP181 $
  • 290611Z AUTO 30011KT 9999 -RA BKN014 OVC020 09/09 A2999 RMK AO2 PRESRR SLP175 $
  • 290556Z AUTO 25010KT 9999 -RA BKN017 OVC023 09/09 A2997 RMK AO2 RAE06DZB06E15RAB29 SLP168 P0001 60004 T00930093 10095 20088 53008 $
  • 290529Z AUTO 25008G15KT 9999 -RA BKN021 OVC028 09/09 A2997 RMK AO2 RAE06DZB06E15RAB29 SLP168 $
  • 290515Z AUTO 24009KT 9999 BKN023 BKN029 09/09 A2996 RMK AO2 RAE06DZB06E15 SLP165 $
  • 290456Z AUTO 22006KT 9999 -RA BKN021 BKN029 BKN037 09/09 A2995 RMK AO2 DZB32E45RAB45 CIG 021V029 BKN021 V SCT SLP161 P0001 T00910091 $
  • 290432Z AUTO 22008KT 9999 -DZ FEW021 SCT027 SCT035 09/09 A2995 RMK AO2 DZB32 SLP161 $

TAF TAF ETEB
Valido dal 28 a 17 ore il 29 a 23 ore UTC


281700Z 2817/2923 20009KT 9999 SCT025 OVC050 620503 QNH2997INS
BECMG 2821/2822 22012KT 9000 -SHRA BKN005 OVC010 610505 QNH2994INS
BECMG 2911/2912 26015G25KT 9000 -SHRA SCT007 OVC015 610505 540109 QNH3008INS
BECMG 2916/2917 25009KT 9000 -SHRA BKN005 OVC010 610505 QNH3012INS TX09/2817Z TN08/2821Z



MetMap, La meteo Aeronautica in un colpo d'occhio ! - Copyright ORBIFLY Dicembre 2007 - Disclaimer

ORBIFLY MET'MAP TEAM :

Programmazione e sviluppo : Alexandra Zaïnal
Concezione : Baudouin d'Aumeries
Aiuto per la programmazione : Marc-Olivier Méhu
Supporto tecnico e logistico : Manuel Goepfert
Aiuto per la traduzione : Arnaldo La Scala

Contatto : metmap@orbifly.com




FONTI E CREDITI :

   NOAA